createdAt,value
2023-01-11T00:03:46.704Z,0.1
2023-01-11T00:09:09.546Z,0
2023-01-11T00:14:16.868Z,0
2023-01-11T00:19:39.264Z,0
2023-01-11T00:24:45.904Z,0
2023-01-11T00:30:09.015Z,0
2023-01-11T00:35:31.700Z,-0.1
2023-01-11T00:40:54.305Z,-0.1
2023-01-11T00:46:17.486Z,-0.1
2023-01-11T00:51:39.920Z,-0.1
2023-01-11T00:57:02.819Z,-0.1
2023-01-11T01:02:10.141Z,-0.1
2023-01-11T01:07:16.207Z,-0.1
2023-01-11T01:12:22.526Z,-0.1
2023-01-11T01:17:29.701Z,-0.1
2023-01-11T01:22:51.756Z,-0.1
2023-01-11T01:27:58.615Z,-0.1
2023-01-11T01:33:21.069Z,-0.1
2023-01-11T01:38:27.500Z,-0.1
2023-01-11T01:43:02.872Z,-0.1
2023-01-11T01:47:53.767Z,-0.1
2023-01-11T01:53:00.931Z,-0.1
2023-01-11T01:58:07.233Z,-0.1
2023-01-11T02:02:59.765Z,-0.2
2023-01-11T02:08:06.890Z,-0.2
2023-01-11T02:12:57.693Z,-0.2
2023-01-11T02:18:04.743Z,-0.1
2023-01-11T02:23:12.080Z,-0.1
2023-01-11T02:28:19.484Z,-0.1
2023-01-11T02:33:26.422Z,0
2023-01-11T02:38:48.981Z,0
2023-01-11T02:43:56.062Z,0.1
2023-01-11T02:48:48.264Z,0.1
2023-01-11T02:54:10.754Z,0.1
2023-01-11T02:59:17.990Z,0.1
2023-01-11T03:04:40.397Z,0.1
2023-01-11T03:09:32.730Z,0.2
2023-01-11T03:14:39.579Z,0.3
2023-01-11T03:20:02.940Z,0.3
2023-01-11T03:25:25.629Z,0.3
2023-01-11T03:30:48.042Z,0.3
2023-01-11T03:36:10.059Z,0.4
2023-01-11T03:41:17.099Z,0.4
2023-01-11T03:46:39.853Z,0.4
2023-01-11T03:52:02.069Z,0.6
2023-01-11T03:57:24.423Z,0.6
2023-01-11T04:02:31.607Z,0.6
2023-01-11T04:07:38.478Z,0.7
2023-01-11T04:13:01.279Z,0.8
2023-01-11T04:17:52.973Z,0.8
2023-01-11T04:23:15.347Z,0.8
2023-01-11T04:28:37.510Z,0.8
2023-01-11T04:33:45.250Z,0.9
2023-01-11T04:39:07.822Z,0.9
2023-01-11T04:44:33.514Z,0.9
2023-01-11T04:49:56.393Z,0.9
2023-01-11T04:55:18.441Z,0.9
2023-01-11T05:00:42.072Z,0.9
2023-01-11T05:06:05.060Z,0.9
2023-01-11T05:11:26.678Z,0.9
2023-01-11T05:16:33.470Z,0.9
2023-01-11T05:21:39.979Z,0.9
2023-01-11T05:26:47.156Z,0.9
2023-01-11T05:31:54.098Z,0.9
2023-01-11T05:37:01.224Z,0.9
2023-01-11T05:42:23.464Z,0.9
2023-01-11T05:47:45.999Z,0.9
2023-01-11T05:53:08.146Z,0.9
2023-01-11T05:58:30.910Z,0.9
2023-01-11T06:03:54.053Z,0.9
2023-01-11T06:09:16.196Z,0.9
2023-01-11T06:14:23.364Z,0.9
2023-01-11T06:19:46.930Z,0.9
2023-01-11T06:24:53.375Z,1
2023-01-11T06:30:18.360Z,1.1
2023-01-11T06:35:41.158Z,1.1
2023-01-11T06:41:03.237Z,1.3
2023-01-11T06:46:27.552Z,1.4
2023-01-11T06:51:51.279Z,1.6
2023-01-11T06:57:14.374Z,1.8
2023-01-11T07:02:39.362Z,2
2023-01-11T07:08:02.400Z,2.3
2023-01-11T07:13:24.941Z,2.6
2023-01-11T07:18:47.394Z,3
2023-01-11T07:24:09.941Z,3.4
2023-01-11T07:29:31.207Z,4.1
2023-01-11T07:35:11.453Z,5
2023-01-11T07:41:07.395Z,6.8
2023-01-11T07:46:41.812Z,8
2023-01-11T07:51:49.421Z,9.1
2023-01-11T07:57:12.498Z,11.4
2023-01-11T08:02:34.976Z,16.7
2023-01-11T08:07:58.646Z,22.1
2023-01-11T08:13:23.515Z,27.2
2023-01-11T08:18:46.287Z,30.8
2023-01-11T08:24:08.864Z,36.1
2023-01-11T08:29:31.902Z,39.4
2023-01-11T08:34:55.142Z,43.8
2023-01-11T08:40:17.674Z,46.7
2023-01-11T08:45:47.064Z,37.8
2023-01-11T08:51:09.543Z,40.8
2023-01-11T08:56:32.222Z,49.4
2023-01-11T09:01:56.267Z,49.3
2023-01-11T09:07:33.616Z,40.6
2023-01-11T09:12:55.871Z,35.7
2023-01-11T09:18:19.152Z,34.5
2023-01-11T09:23:41.664Z,33
2023-01-11T09:28:32.929Z,31.1
2023-01-11T09:33:56.317Z,29.4
2023-01-11T09:39:20.180Z,28.1
2023-01-11T09:44:43.856Z,27.9
2023-01-11T09:49:53.440Z,28.7
2023-01-11T09:55:16.608Z,29.6
2023-01-11T10:00:39.729Z,31.1
2023-01-11T10:06:03.258Z,31.1
2023-01-11T10:22:18.269Z,27.4
2023-01-11T10:27:41.474Z,26.4
2023-01-11T10:33:03.701Z,25.2
2023-01-11T10:38:26.663Z,24.3
2023-01-11T10:43:49.621Z,23.4
2023-01-11T10:48:56.642Z,23.2
2023-01-11T10:54:23.362Z,23.1
2023-01-11T11:00:05.799Z,23.1
2023-01-11T11:05:15.896Z,22.9
2023-01-11T11:10:23.787Z,22.6
2023-01-11T11:15:47.738Z,22.1
2023-01-11T11:20:55.590Z,21.6
2023-01-11T11:26:18.828Z,21.3
2023-01-11T11:36:50.068Z,21.6
2023-01-11T11:42:13.127Z,22.1
2023-01-11T11:47:36.098Z,23
2023-01-11T11:53:18.987Z,23.1
2023-01-11T11:58:42.020Z,22.1
2023-01-11T12:04:05.047Z,21
2023-01-11T12:09:22.893Z,20.2
2023-01-11T12:14:49.153Z,19.3
2023-01-11T12:20:11.988Z,19.1
2023-01-11T12:25:34.325Z,18.9
2023-01-11T12:30:57.571Z,18.3
2023-01-11T12:35:49.073Z,17.6
2023-01-11T12:40:40.113Z,16.7
2023-01-11T12:45:46.448Z,15.8
2023-01-11T12:51:10.044Z,15.1
2023-01-11T12:56:32.586Z,14.6
2023-01-11T13:01:57.694Z,13.8
2023-01-11T13:07:24.962Z,13.3
2023-01-11T13:12:32.527Z,13
2023-01-11T13:17:54.992Z,12.8
2023-01-11T13:23:37.008Z,12.6
2023-01-11T13:29:04.279Z,12.4
2023-01-11T13:34:27.280Z,12.4
2023-01-11T13:40:03.747Z,12.2
2023-01-11T13:45:25.974Z,12
2023-01-11T13:50:33.165Z,11.9
2023-01-11T13:56:00.686Z,11.7
2023-01-11T14:01:23.359Z,11.4
2023-01-11T14:06:46.285Z,10.9
2023-01-11T14:12:09.446Z,10.5
2023-01-11T14:17:32.739Z,10.1
2023-01-11T14:22:54.709Z,9.8
2023-01-11T14:28:18.536Z,9.3
2023-01-11T14:33:41.923Z,8.9
2023-01-11T14:39:04.441Z,8.5
2023-01-11T14:44:37.106Z,8.1
2023-01-11T14:50:00.406Z,7.8
2023-01-11T14:55:44.776Z,7.5
2023-01-11T15:01:08.606Z,7.2
2023-01-11T15:06:33.305Z,6.9
2023-01-11T15:11:55.649Z,6.6
2023-01-11T15:17:18.557Z,6.3
2023-01-11T15:22:27.792Z,6.1
2023-01-11T15:27:52.178Z,5.8
2023-01-11T15:33:14.847Z,5.6
2023-01-11T15:38:37.866Z,5.4
2023-01-11T15:43:44.348Z,5.2
2023-01-11T15:49:07.248Z,5
2023-01-11T15:54:30.641Z,4.9
2023-01-11T15:59:37.665Z,4.7
2023-01-11T16:05:02.345Z,4.6
2023-01-11T16:10:09.679Z,4.4
2023-01-11T16:15:16.225Z,4.4
2023-01-11T16:20:09.044Z,4.3
2023-01-11T16:25:01.208Z,4.2
2023-01-11T16:30:25.576Z,4.1
2023-01-11T16:35:35.134Z,4.1
2023-01-11T16:40:57.502Z,3.9
2023-01-11T16:46:20.087Z,3.9
2023-01-11T16:51:43.139Z,3.8
2023-01-11T16:56:50.340Z,3.8
2023-01-11T17:01:58.089Z,3.7
2023-01-11T17:07:14.762Z,3.7
2023-01-11T17:12:43.467Z,3.6
2023-01-11T17:17:51.906Z,3.6
2023-01-11T17:23:14.932Z,3.5
2023-01-11T17:28:40.590Z,3.4
2023-01-11T17:34:03.080Z,3.4
2023-01-11T17:39:13.184Z,3.4
2023-01-11T17:44:36.647Z,3.3
2023-01-11T17:49:59.429Z,3.3
2023-01-11T17:54:58.692Z,3.3
2023-01-11T18:00:05.839Z,3.3
2023-01-11T18:05:30.917Z,3.3
2023-01-11T18:10:56.258Z,3.2
2023-01-11T18:16:04.492Z,3.1
2023-01-11T18:21:30.295Z,3.1
2023-01-11T18:26:54.364Z,3.1
2023-01-11T18:32:19.559Z,3
2023-01-11T18:37:28.045Z,3
2023-01-11T18:42:40.609Z,3
2023-01-11T18:48:05.420Z,2.9
2023-01-11T18:53:31.243Z,2.9
2023-01-11T18:58:55.814Z,2.9
2023-01-11T19:04:42.620Z,2.9
2023-01-11T19:10:10.498Z,2.9
2023-01-11T19:15:37.340Z,2.9
2023-01-11T19:21:06.379Z,2.9
2023-01-11T19:26:40.654Z,2.8
2023-01-11T19:32:00.153Z,2.8
2023-01-11T19:37:14.853Z,2.8
2023-01-11T19:42:32.687Z,2.8
2023-01-11T19:48:10.491Z,2.8
2023-01-11T19:53:40.207Z,2.7
2023-01-11T19:58:51.479Z,2.7
2023-01-11T20:04:20.222Z,2.7
2023-01-11T20:09:46.604Z,2.7
2023-01-11T20:14:57.781Z,2.6
2023-01-11T20:20:23.995Z,2.6
2023-01-11T20:25:18.780Z,2.6
2023-01-11T20:30:45.175Z,2.6
2023-01-11T20:36:37.478Z,2.6
2023-01-11T20:42:03.123Z,2.6
2023-01-11T20:47:14.256Z,2.6
2023-01-11T20:52:23.157Z,2.5
2023-01-11T20:57:47.115Z,2.5
2023-01-11T21:03:13.002Z,2.5
2023-01-11T21:08:37.507Z,2.5
2023-01-11T21:13:45.124Z,2.4
2023-01-11T21:19:08.476Z,2.4
2023-01-11T21:24:16.808Z,2.4
2023-01-11T21:29:40.396Z,2.3
2023-01-11T21:35:03.168Z,2.2
2023-01-11T21:40:26.448Z,2.1
2023-01-11T21:45:49.310Z,2.1
2023-01-11T21:51:12.167Z,2.1
2023-01-11T21:56:35.580Z,2
2023-01-11T22:01:26.556Z,1.9
2023-01-11T22:06:33.741Z,1.9
2023-01-11T22:12:08.223Z,1.8
2023-01-11T22:17:30.956Z,1.7
2023-01-11T22:22:53.839Z,1.6
2023-01-11T22:28:17.143Z,1.6
2023-01-11T22:33:40.227Z,1.5
2023-01-11T22:39:03.167Z,1.4
2023-01-11T22:44:25.360Z,1.4
2023-01-11T22:49:48.249Z,1.3
2023-01-11T23:00:02.543Z,1.3
2023-01-11T23:05:10.550Z,1.3
2023-01-11T23:10:32.921Z,1.3
2023-01-11T23:15:40.002Z,1.2
2023-01-11T23:21:04.168Z,1.2
2023-01-11T23:26:26.945Z,1.3
2023-01-11T23:31:34.609Z,1.3
2023-01-11T23:36:41.440Z,1.3
2023-01-11T23:41:48.739Z,1.3
2023-01-11T23:47:11.565Z,1.3
2023-01-11T23:52:33.291Z,1.3
2023-01-11T23:57:56.663Z,1.3
